Time;durP1;ratioP1;P1;durP2;ratioP2;P2;SDS_P1;SDS_P2;PMS_P1;PMS_P2;Temp;Humidity;BMP_temperature;BMP_pressure;BME280_temperature;BME280_humidity;BME280_pressure;Samples;Min_cycle;Max_cycle;Signal;HPM_P1;HPM_P2
2023/02/27 00:01:21;;;;;;;6.83;2.80;;;-1.50;99.90;;;;;;5046979;28;20053;-66
2023/02/27 00:03:46;;;;;;;7.37;2.50;;;-1.60;99.90;;;;;;5046125;28;20075;-67
2023/02/27 00:06:12;;;;;;;5.63;2.20;;;-1.50;99.90;;;;;;5051870;28;20117;-67
2023/02/27 00:08:38;;;;;;;4.33;1.70;;;-1.40;99.90;;;;;;5047377;28;20052;-66
2023/02/27 00:11:03;;;;;;;5.27;1.87;;;-1.40;99.90;;;;;;5046974;28;20037;-67
2023/02/27 00:13:29;;;;;;;6.97;1.37;;;-1.40;99.90;;;;;;5040769;28;20021;-65
2023/02/27 00:15:55;;;;;;;5.73;1.83;;;-1.30;99.90;;;;;;5049577;28;20590;-66
2023/02/27 00:18:21;;;;;;;3.77;1.97;;;-1.30;99.90;;;;;;5046826;28;20541;-66
2023/02/27 00:20:47;;;;;;;5.07;2.67;;;-1.30;99.90;;;;;;5046205;28;20029;-66
2023/02/27 00:23:14;;;;;;;5.03;2.23;;;-1.30;99.90;;;;;;5032459;28;20408;-65
2023/02/27 00:25:40;;;;;;;3.77;1.43;;;-1.30;99.90;;;;;;5018972;28;20523;-66
2023/02/27 00:28:06;;;;;;;7.13;1.90;;;-1.20;99.90;;;;;;5046075;28;20060;-66
2023/02/27 00:30:32;;;;;;;5.60;1.93;;;-1.20;99.90;;;;;;5045025;28;20021;-66
2023/02/27 00:32:58;;;;;;;5.60;1.97;;;-1.20;99.90;;;;;;5050374;28;20029;-65
2023/02/27 00:35:24;;;;;;;8.40;1.43;;;-1.20;99.90;;;;;;5046811;28;20036;-66
2023/02/27 00:37:50;;;;;;;3.13;1.40;;;-1.20;99.90;;;;;;5049517;28;20079;-66
2023/02/27 00:40:16;;;;;;;7.20;2.17;;;-1.20;99.90;;;;;;5047910;28;20028;-65
2023/02/27 00:42:42;;;;;;;7.50;1.87;;;-1.20;99.90;;;;;;5046175;28;20041;-67
2023/02/27 00:45:08;;;;;;;5.00;1.43;;;-1.20;99.90;;;;;;5044292;28;20029;-65
2023/02/27 00:47:34;;;;;;;8.73;1.80;;;-1.30;99.90;;;;;;5046037;28;20040;-66
2023/02/27 00:50:00;;;;;;;4.77;2.00;;;-1.30;99.90;;;;;;5044146;28;20029;-65
2023/02/27 00:52:26;;;;;;;4.77;1.77;;;-1.30;99.90;;;;;;5028883;28;20082;-65
2023/02/27 00:54:52;;;;;;;2.63;1.50;;;-1.40;99.90;;;;;;5050511;28;20037;-67
2023/02/27 00:57:17;;;;;;;5.47;2.13;;;-1.30;99.90;;;;;;5044054;28;20037;-66
2023/02/27 00:59:43;;;;;;;6.67;2.10;;;-1.30;99.90;;;;;;5043660;28;20099;-66
2023/02/27 01:02:09;;;;;;;7.10;2.40;;;-1.30;99.90;;;;;;5045816;28;20496;-65
2023/02/27 01:04:35;;;;;;;5.80;2.40;;;-1.30;99.90;;;;;;5046638;28;20029;-66
2023/02/27 01:07:01;;;;;;;4.37;1.73;;;-1.30;99.90;;;;;;5043677;28;20488;-66
2023/02/27 01:09:26;;;;;;;5.17;2.30;;;-1.30;99.90;;;;;;5037287;28;20036;-66
2023/02/27 01:11:52;;;;;;;5.53;1.57;;;-1.40;99.90;;;;;;5027849;28;20056;-67
2023/02/27 01:14:18;;;;;;;2.97;1.50;;;-1.40;99.90;;;;;;5043144;28;20043;-66
2023/02/27 01:16:43;;;;;;;5.57;2.00;;;-1.40;99.90;;;;;;5040576;28;20503;-66
2023/02/27 01:19:09;;;;;;;4.40;1.50;;;-1.50;99.90;;;;;;5046343;28;20044;-66
2023/02/27 01:21:35;;;;;;;8.13;2.07;;;-1.50;99.90;;;;;;5042570;28;20029;-67
2023/02/27 01:24:01;;;;;;;4.63;1.83;;;-1.50;99.90;;;;;;5046014;28;20412;-67
2023/02/27 01:26:26;;;;;;;5.87;2.07;;;-1.50;99.90;;;;;;5028369;28;20716;-65
2023/02/27 01:28:52;;;;;;;1.83;1.17;;;-1.50;99.90;;;;;;5044598;28;20086;-66
2023/02/27 01:31:17;;;;;;;7.00;1.97;;;-1.50;99.90;;;;;;5039093;28;20028;-66
2023/02/27 01:33:43;;;;;;;4.23;1.37;;;-1.50;99.90;;;;;;5044508;28;20029;-68
2023/02/27 01:36:09;;;;;;;4.43;1.70;;;-1.50;99.90;;;;;;5042406;28;20422;-65
2023/02/27 01:38:34;;;;;;;5.43;1.63;;;-1.50;99.90;;;;;;5050131;28;20037;-66
2023/02/27 01:41:00;;;;;;;3.20;1.50;;;-1.50;99.90;;;;;;5046405;28;20561;-65
2023/02/27 01:43:26;;;;;;;3.77;1.23;;;-1.50;99.90;;;;;;5030210;28;20041;-66
2023/02/27 01:45:52;;;;;;;5.23;1.97;;;-1.50;99.90;;;;;;5046560;28;20543;-65
2023/02/27 01:48:34;;;;;;;4.67;1.70;;;-1.50;99.90;;;;;;5048897;28;20037;-67
2023/02/27 01:51:18;;;;;;;8.30;1.87;;;-1.50;99.90;;;;;;5037125;28;20401;-65
2023/02/27 01:53:47;;;;;;;2.88;1.52;;;-1.50;99.90;;;;;;5009660;28;20041;-67
2023/02/27 01:56:33;;;;;;;5.90;2.07;;;-1.50;99.90;;;;;;5044256;28;20167;-67
2023/02/27 01:59:05;;;;;;;3.37;1.50;;;-1.60;99.90;;;;;;5040928;28;20109;-66
2023/02/27 02:01:33;;;;;;;8.67;1.67;;;-1.60;99.90;;;;;;5024473;28;20021;-67
2023/02/27 02:04:05;;;;;;;3.20;1.67;;;-1.60;99.90;;;;;;5027718;28;20504;-66
2023/02/27 02:06:35;;;;;;;4.13;1.53;;;-1.60;99.90;;;;;;5019855;28;20025;-66
2023/02/27 02:09:02;;;;;;;5.63;1.93;;;-1.70;99.90;;;;;;5045499;28;20025;-66
2023/02/27 02:11:28;;;;;;;5.33;1.80;;;-1.70;99.90;;;;;;5023755;28;20487;-66
2023/02/27 02:13:59;;;;;;;5.63;2.20;;;-1.80;99.90;;;;;;5039717;28;20025;-66
2023/02/27 02:17:02;;;;;;;6.53;1.83;;;-1.90;99.90;;;;;;5048338;28;20021;-66
2023/02/27 02:20:06;;;;;;;3.40;1.80;;;-1.90;99.90;;;;;;5043140;28;20061;-66
2023/02/27 02:23:10;;;;;;;4.50;2.03;;;-2.00;99.90;;;;;;5045220;28;20035;-68
2023/02/27 02:25:56;;;;;;;4.23;1.70;;;-2.10;99.90;;;;;;5043801;28;20032;-67
2023/02/27 02:28:31;;;;;;;4.47;1.87;;;-2.10;99.90;;;;;;5046818;28;20036;-67
2023/02/27 02:31:05;;;;;;;8.27;1.77;;;-2.20;99.90;;;;;;5046811;28;20067;-67
2023/02/27 02:33:52;;;;;;;4.57;2.03;;;-2.30;99.90;;;;;;5047368;28;20373;-68
2023/02/27 02:37:05;;;;;;;3.97;1.63;;;-2.30;99.90;;;;;;5044310;28;20029;-66
2023/02/27 02:39:55;;;;;;;6.27;2.27;;;-2.30;99.90;;;;;;4999149;22;20058;-65
2023/02/27 02:42:48;;;;;;;6.93;1.73;;;-2.30;99.90;;;;;;5021071;28;20074;-66
2023/02/27 02:45:58;;;;;;;5.33;1.70;;;-2.30;99.90;;;;;;5043190;28;20037;-66
2023/02/27 02:48:42;;;;;;;4.10;1.50;;;-2.20;99.90;;;;;;5042914;28;20025;-66
2023/02/27 02:51:30;;;;;;;3.50;1.73;;;-2.20;99.90;;;;;;5044298;28;20496;-67
2023/02/27 02:54:14;;;;;;;2.50;1.77;;;-2.10;99.90;;;;;;5028624;28;20535;-66
2023/02/27 02:56:55;;;;;;;6.13;2.42;;;-2.00;99.90;;;;;;5027853;28;20705;-66
2023/02/27 02:59:42;;;;;;;3.53;1.50;;;-2.10;99.90;;;;;;5048308;28;20025;-66
2023/02/27 03:02:15;;;;;;;2.50;1.43;;;-2.10;99.90;;;;;;5041688;28;20033;-66
2023/02/27 03:05:13;;;;;;;2.30;1.33;;;-2.10;99.90;;;;;;5049595;28;20089;-66
2023/02/27 03:07:46;;;;;;;3.23;1.70;;;-2.10;99.90;;;;;;5048341;28;20025;-65
2023/02/27 03:10:24;;;;;;;3.70;2.10;;;-2.10;99.90;;;;;;5045553;28;20079;-66
2023/02/27 03:13:01;;;;;;;3.80;1.80;;;-2.00;99.90;;;;;;5046611;28;20028;-65
2023/02/27 03:15:36;;;;;;;3.03;1.30;;;-2.00;99.90;;;;;;5048334;28;20067;-67
2023/02/27 03:18:07;;;;;;;2.83;1.57;;;-2.00;99.90;;;;;;5043025;28;20024;-66
2023/02/27 03:20:44;;;;;;;5.57;2.00;;;-2.00;99.90;;;;;;5046535;28;20494;-66
2023/02/27 03:23:19;;;;;;;8.23;2.13;;;-2.10;99.90;;;;;;5048298;28;20036;-66
2023/02/27 03:25:47;;;;;;;5.53;2.00;;;-2.10;99.90;;;;;;5047736;28;20033;-66
2023/02/27 03:28:19;;;;;;;6.43;1.70;;;-2.10;99.90;;;;;;5049468;28;20530;-66
2023/02/27 03:30:57;;;;;;;5.80;1.93;;;-2.10;99.90;;;;;;5048119;28;20017;-66
2023/02/27 03:33:37;;;;;;;4.87;1.80;;;-2.10;99.90;;;;;;5048029;28;20025;-66
2023/02/27 03:36:20;;;;;;;6.27;1.70;;;-2.10;99.90;;;;;;5047265;28;20064;-66
2023/02/27 03:39:04;;;;;;;3.93;1.47;;;-2.10;99.90;;;;;;5047230;28;20032;-66
2023/02/27 03:41:41;;;;;;;7.90;1.90;;;-2.10;99.90;;;;;;5051142;28;20032;-66
2023/02/27 03:44:45;;;;;;;5.83;1.50;;;-2.10;99.90;;;;;;5052323;28;20029;-66
2023/02/27 03:47:10;;;;;;;3.67;1.60;;;-2.20;99.90;;;;;;5049304;28;20056;-66
2023/02/27 03:49:36;;;;;;;5.80;2.00;;;-2.20;99.90;;;;;;5050976;28;20484;-65
2023/02/27 03:52:02;;;;;;;4.00;1.50;;;-2.20;99.90;;;;;;5047956;28;20108;-66
2023/02/27 03:54:44;;;;;;;5.07;1.97;;;-2.20;99.90;;;;;;5023727;28;20048;-66
2023/02/27 03:57:10;;;;;;;1.57;1.07;;;-2.30;99.90;;;;;;5051955;28;20029;-66
2023/02/27 03:59:37;;;;;;;2.27;1.57;;;-2.40;99.90;;;;;;5035042;28;20021;-67
2023/02/27 04:02:02;;;;;;;3.80;1.80;;;-2.50;99.90;;;;;;5044597;28;20428;-66
2023/02/27 04:04:34;;;;;;;4.00;1.83;;;-2.50;99.90;;;;;;5048800;28;20108;-66
2023/02/27 04:07:21;;;;;;;4.27;2.00;;;-2.60;99.90;;;;;;5035851;28;20104;-67
2023/02/27 04:10:09;;;;;;;9.03;1.97;;;-2.60;99.90;;;;;;5052185;28;20024;-66
2023/02/27 04:12:40;;;;;;;4.87;1.63;;;-2.60;99.90;;;;;;5051816;28;20039;-66
2023/02/27 04:15:17;;;;;;;4.50;1.67;;;-2.60;99.90;;;;;;5048312;28;20025;-66
2023/02/27 04:17:51;;;;;;;7.67;2.13;;;-2.70;99.90;;;;;;5052118;28;20025;-65
2023/02/27 04:20:21;;;;;;;;;;;-2.70;99.90;;;;;;5051384;28;20033;-66
2023/02/27 04:22:52;;;;;;;2.77;1.93;;;-2.60;99.90;;;;;;5033812;28;19913;-66
2023/02/27 04:25:36;;;;;;;4.03;1.80;;;-2.60;99.90;;;;;;5053125;28;20029;-65
2023/02/27 04:28:07;;;;;;;6.13;1.60;;;-2.60;99.90;;;;;;5046919;28;20036;-66
2023/02/27 04:30:54;;;;;;;8.90;1.43;;;-2.60;99.90;;;;;;5052789;28;20034;-66
2023/02/27 04:33:41;;;;;;;5.20;1.63;;;-2.60;99.90;;;;;;5052913;28;20017;-66
2023/02/27 04:36:15;;;;;;;8.47;2.33;;;-2.60;99.90;;;;;;5049361;28;20025;-65
2023/02/27 04:38:48;;;;;;;2.95;1.63;;;-2.50;99.90;;;;;;5050457;28;20052;-66
2023/02/27 04:41:29;;;;;;;7.83;2.63;;;-2.50;99.90;;;;;;5052599;28;20479;-66
2023/02/27 04:43:56;;;;;;;4.53;1.97;;;-2.50;99.90;;;;;;5052146;28;20068;-65
2023/02/27 04:46:26;;;;;;;3.97;1.97;;;-2.60;99.90;;;;;;5048034;28;20017;-65
2023/02/27 04:48:58;;;;;;;3.57;1.70;;;-2.80;99.90;;;;;;5045002;28;20025;-65
2023/02/27 04:51:34;;;;;;;3.30;1.80;;;-2.90;99.90;;;;;;5048685;28;20032;-65
2023/02/27 04:54:09;;;;;;;5.53;1.53;;;-3.00;99.90;;;;;;5019215;28;20052;-66
2023/02/27 04:56:40;;;;;;;2.80;1.40;;;-3.00;99.90;;;;;;5049889;28;20033;-65
2023/02/27 04:59:18;;;;;;;5.43;1.50;;;-2.90;99.90;;;;;;5051735;28;20025;-65
2023/02/27 05:01:53;;;;;;;3.80;1.73;;;-2.90;99.90;;;;;;5043138;28;20024;-65
2023/02/27 05:04:21;;;;;;;4.00;2.00;;;-2.80;99.90;;;;;;5050261;28;20029;-65
2023/02/27 05:06:49;;;;;;;4.07;1.30;;;-2.70;99.90;;;;;;5033961;28;20078;-66
2023/02/27 05:09:34;;;;;;;3.07;1.63;;;-2.70;99.90;;;;;;5051589;28;20017;-65
2023/02/27 05:12:16;;;;;;;3.40;1.63;;;-2.70;99.90;;;;;;5048993;28;20385;-66
2023/02/27 05:15:00;;;;;;;2.27;1.10;;;-2.60;99.90;;;;;;5049535;28;20025;-64
2023/02/27 05:17:36;;;;;;;7.18;1.30;;;-2.60;99.90;;;;;;5049554;28;20447;-66
2023/02/27 05:20:06;;;;;;;5.23;1.60;;;-2.60;99.90;;;;;;5049903;28;20041;-65
2023/02/27 05:22:44;;;;;;;4.73;1.60;;;-2.60;99.90;;;;;;5051131;28;20112;-66
2023/02/27 05:25:27;;;;;;;5.27;1.53;;;-2.60;99.90;;;;;;5047989;28;20037;-65
2023/02/27 05:27:55;;;;;;;2.83;1.53;;;-2.60;99.90;;;;;;5043900;28;20028;-66
2023/02/27 05:30:30;;;;;;;1.17;0.90;;;-2.60;99.90;;;;;;5046027;28;20036;-65
2023/02/27 05:32:59;;;;;;;4.00;1.60;;;-2.60;99.90;;;;;;5042455;28;20025;-65
2023/02/27 05:35:43;;;;;;;3.23;1.53;;;-2.60;99.90;;;;;;5048038;28;20123;-65
2023/02/27 05:38:16;;;;;;;4.80;2.42;;;-2.60;99.90;;;;;;5049481;28;20021;-66
2023/02/27 05:40:57;;;;;;;4.83;2.20;;;-2.60;99.90;;;;;;5047807;28;20033;-65
2023/02/27 05:43:38;;;;;;;5.70;1.80;;;-2.60;99.90;;;;;;5044057;28;20036;-66
2023/02/27 05:46:08;;;;;;;2.83;1.40;;;-2.60;99.90;;;;;;5045859;28;20170;-66
2023/02/27 05:48:49;;;;;;;3.97;1.47;;;-2.60;99.90;;;;;;5045301;28;20029;-66
2023/02/27 05:51:18;;;;;;;3.80;1.50;;;-2.70;99.90;;;;;;5048703;28;20502;-66
2023/02/27 05:53:49;;;;;;;4.30;1.40;;;-2.80;99.90;;;;;;5035601;28;20575;-66
2023/02/27 05:56:18;;;;;;;2.50;1.30;;;-2.90;99.90;;;;;;5030426;28;20032;-66
2023/02/27 05:58:58;;;;;;;6.53;1.90;;;-2.80;99.90;;;;;;5031653;28;20054;-66
2023/02/27 06:01:24;;;;;;;5.13;1.87;;;-2.90;99.90;;;;;;5045054;28;20060;-66
2023/02/27 06:03:50;;;;;;;3.53;1.47;;;-2.90;99.90;;;;;;5047054;28;20037;-66
2023/02/27 06:06:18;;;;;;;2.43;1.53;;;-2.90;99.90;;;;;;5039585;28;20052;-66
2023/02/27 06:08:44;;;;;;;4.43;1.93;;;-2.90;99.90;;;;;;5040923;28;20029;-66
2023/02/27 06:11:10;;;;;;;4.07;2.00;;;-3.00;99.90;;;;;;5045481;28;20025;-66
2023/02/27 06:13:36;;;;;;;4.97;1.67;;;-2.90;99.90;;;;;;5047071;28;20025;-66
2023/02/27 06:16:01;;;;;;;5.90;2.27;;;-2.90;99.90;;;;;;5049001;28;20427;-66
2023/02/27 06:18:27;;;;;;;10.67;3.80;;;-2.90;99.90;;;;;;5028041;28;20028;-66
2023/02/27 06:20:53;;;;;;;6.53;2.73;;;-2.90;99.90;;;;;;5029654;28;20190;-66
2023/02/27 06:23:19;;;;;;;6.40;1.43;;;-2.90;99.90;;;;;;5046061;28;20028;-65
2023/02/27 06:25:44;;;;;;;9.07;2.13;;;-2.80;99.90;;;;;;5045481;28;20100;-66
2023/02/27 06:28:10;;;;;;;3.27;1.40;;;-2.80;99.90;;;;;;5047899;28;20029;-66
2023/02/27 06:30:37;;;;;;;4.17;1.57;;;-2.80;99.90;;;;;;5049529;28;20036;-67
2023/02/27 06:33:03;;;;;;;3.43;1.73;;;-2.80;99.90;;;;;;5047603;28;20039;-67
2023/02/27 06:35:29;;;;;;;3.13;1.50;;;-2.70;99.90;;;;;;5051383;28;20495;-65
2023/02/27 06:37:55;;;;;;;5.57;1.50;;;-2.70;99.90;;;;;;5048573;28;20082;-65
2023/02/27 06:40:21;;;;;;;3.60;1.37;;;-2.70;99.90;;;;;;5028809;28;20039;-65
2023/02/27 06:42:47;;;;;;;6.27;0.93;;;-2.60;99.90;;;;;;5036880;28;20040;-65
2023/02/27 06:45:14;;;;;;;1.43;0.90;;;-2.60;99.90;;;;;;5050505;28;20554;-66
2023/02/27 06:47:40;;;;;;;1.93;1.27;;;-2.50;99.90;;;;;;5031167;28;20037;-67
2023/02/27 06:50:07;;;;;;;4.80;2.47;;;-2.50;99.90;;;;;;5046542;28;20029;-66
2023/02/27 06:52:33;;;;;;;7.13;2.40;;;-2.50;99.90;;;;;;5027811;28;20025;-65
2023/02/27 06:54:59;;;;;;;5.57;2.40;;;-2.50;99.90;;;;;;5021687;28;20041;-65
2023/02/27 06:57:24;;;;;;;5.67;2.50;;;-2.70;99.90;;;;;;5031693;28;20412;-66
2023/02/27 06:59:50;;;;;;;3.27;1.80;;;-2.70;99.90;;;;;;5049359;28;20047;-65
2023/02/27 07:02:17;;;;;;;6.83;2.13;;;-2.90;99.90;;;;;;5044340;28;20084;-65
2023/02/27 07:04:42;;;;;;;6.13;2.80;;;-3.00;99.90;;;;;;5047622;28;20029;-66
2023/02/27 07:07:08;;;;;;;12.30;4.03;;;-3.00;99.90;;;;;;5030685;28;20452;-66
2023/02/27 07:09:35;;;;;;;6.13;3.00;;;-3.10;99.90;;;;;;5030339;28;20108;-66
2023/02/27 07:12:01;;;;;;;5.73;2.63;;;-3.20;99.90;;;;;;5030710;28;20032;-66
2023/02/27 07:14:27;;;;;;;3.90;2.70;;;-3.10;99.90;;;;;;5051842;28;20055;-66
2023/02/27 07:16:53;;;;;;;6.83;2.57;;;-3.20;99.90;;;;;;5052150;28;20104;-66
2023/02/27 07:19:20;;;;;;;5.27;2.43;;;-3.10;99.90;;;;;;5052158;28;20155;-66
2023/02/27 07:21:45;;;;;;;5.23;2.53;;;-3.10;99.90;;;;;;5048140;28;20021;-66
2023/02/27 07:24:11;;;;;;;8.60;2.47;;;-3.10;99.90;;;;;;5034104;28;20515;-66
2023/02/27 07:26:37;;;;;;;4.53;2.00;;;-3.00;99.90;;;;;;5034104;28;20032;-66
2023/02/27 07:29:03;;;;;;;6.77;2.07;;;-2.80;99.90;;;;;;5050640;28;20481;-66
2023/02/27 07:31:29;;;;;;;5.83;2.17;;;-2.60;99.90;;;;;;5052370;28;20021;-66
2023/02/27 07:33:55;;;;;;;4.03;1.83;;;-2.40;99.90;;;;;;5041300;28;20021;-66
2023/02/27 07:36:20;;;;;;;11.37;3.20;;;-2.30;99.90;;;;;;5037910;28;20067;-66
2023/02/27 07:38:46;;;;;;;8.77;2.93;;;-2.10;99.90;;;;;;5034362;28;20040;-66
2023/02/27 07:41:12;;;;;;;4.00;2.40;;;-2.00;99.90;;;;;;5050705;28;20037;-66
2023/02/27 07:43:38;;;;;;;3.23;1.83;;;-1.90;99.90;;;;;;5033896;28;20124;-66
2023/02/27 07:46:04;;;;;;;3.97;1.00;;;-1.70;99.90;;;;;;5034658;28;20025;-66
2023/02/27 07:48:30;;;;;;;3.60;1.27;;;-1.60;99.90;;;;;;5053056;28;20442;-66
2023/02/27 07:50:56;;;;;;;4.17;1.70;;;-1.60;99.90;;;;;;5047295;28;20039;-66
2023/02/27 07:53:22;;;;;;;2.50;1.67;;;-1.50;99.90;;;;;;5044018;28;20017;-67
2023/02/27 07:55:48;;;;;;;3.03;1.77;;;-1.30;99.90;;;;;;5008342;28;20110;-66
2023/02/27 07:58:13;;;;;;;2.53;1.40;;;-1.30;99.90;;;;;;5048883;28;20115;-66
2023/02/27 08:00:39;;;;;;;3.67;1.87;;;-1.10;99.90;;;;;;5050259;28;20036;-66
2023/02/27 08:03:05;;;;;;;3.27;1.63;;;-1.10;99.90;;;;;;5052124;28;20048;-66
2023/02/27 08:05:30;;;;;;;2.13;1.20;;;-0.90;99.90;;;;;;5052601;28;20037;-66
2023/02/27 08:07:56;;;;;;;2.63;1.53;;;-0.80;99.90;;;;;;5047816;28;20025;-66
2023/02/27 08:10:22;;;;;;;5.47;1.90;;;-0.70;99.90;;;;;;5051351;28;20522;-66
2023/02/27 08:12:48;;;;;;;6.37;1.33;;;-0.70;99.90;;;;;;5047545;28;20021;-66
2023/02/27 08:15:13;;;;;;;3.20;1.53;;;-0.60;99.90;;;;;;5049338;28;20108;-66
2023/02/27 08:17:39;;;;;;;3.00;1.33;;;-0.50;99.90;;;;;;5051139;28;20021;-66
2023/02/27 08:20:10;;;;;;;5.03;1.43;;;-0.50;99.90;;;;;;5036891;28;20044;-66
2023/02/27 08:22:37;;;;;;;2.93;1.27;;;-0.40;99.90;;;;;;5051567;28;20052;-66
2023/02/27 08:25:05;;;;;;;2.83;1.10;;;-0.50;99.90;;;;;;5049312;28;20591;-66
2023/02/27 08:27:31;;;;;;;3.72;1.50;;;-0.40;99.90;;;;;;5050330;28;20086;-65
2023/02/27 08:29:57;;;;;;;5.90;1.50;;;-0.30;99.90;;;;;;5052362;28;20111;-66
2023/02/27 08:32:23;;;;;;;2.90;1.70;;;-0.30;99.90;;;;;;5050729;28;20021;-65
2023/02/27 08:34:48;;;;;;;4.03;1.60;;;-0.20;99.90;;;;;;5053140;28;20502;-66
2023/02/27 08:37:14;;;;;;;2.67;1.17;;;-0.10;99.90;;;;;;5050534;28;20060;-67
2023/02/27 08:39:39;;;;;;;3.72;1.40;;;0.00;99.90;;;;;;5043708;28;20411;-65
2023/02/27 08:42:06;;;;;;;2.58;1.33;;;0.10;99.90;;;;;;5052051;28;20032;-66
2023/02/27 08:44:31;;;;;;;3.73;1.40;;;0.10;99.90;;;;;;5077070;22;20037;-65
2023/02/27 08:46:57;;;;;;;5.13;1.33;;;0.10;99.90;;;;;;5054925;28;20506;-67
2023/02/27 08:49:24;;;;;;;3.15;1.50;;;0.30;99.90;;;;;;5052753;28;20025;-66
2023/02/27 08:51:50;;;;;;;4.53;1.33;;;0.40;99.90;;;;;;5060440;28;20016;-66
2023/02/27 08:54:17;;;;;;;3.83;1.40;;;0.50;99.90;;;;;;5058843;28;20033;-67
2023/02/27 08:56:43;;;;;;;3.97;1.73;;;0.50;99.90;;;;;;5039335;28;20044;-65
2023/02/27 08:59:08;;;;;;;4.90;1.65;;;0.60;99.90;;;;;;5049847;28;20017;-66
2023/02/27 09:01:34;;;;;;;2.90;1.30;;;0.70;99.90;;;;;;5047686;28;20017;-66
2023/02/27 09:04:04;;;;;;;4.50;1.80;;;0.80;99.90;;;;;;5040968;28;20431;-66
2023/02/27 09:06:30;;;;;;;5.30;1.08;;;0.80;99.90;;;;;;5044243;28;20017;-64
2023/02/27 09:08:57;;;;;;;4.28;1.15;;;0.80;99.90;;;;;;5048358;28;20082;-66
2023/02/27 09:11:23;;;;;;;1.80;0.63;;;0.90;99.90;;;;;;5049089;28;20017;-66
2023/02/27 09:13:50;;;;;;;4.43;1.08;;;0.90;99.90;;;;;;5049497;28;20107;-66
2023/02/27 09:16:16;;;;;;;3.47;1.23;;;1.00;99.90;;;;;;5048827;28;20461;-64
2023/02/27 09:18:42;;;;;;;3.45;1.20;;;1.10;99.90;;;;;;5044763;28;20040;-64
2023/02/27 09:21:08;;;;;;;2.47;1.10;;;1.20;99.90;;;;;;5041198;28;20057;-65
2023/02/27 09:23:33;;;;;;;1.70;0.55;;;1.30;99.90;;;;;;5041183;28;20057;-66
2023/02/27 09:25:59;;;;;;;1.50;0.43;;;1.40;99.90;;;;;;5038956;28;20053;-65
2023/02/27 09:28:25;;;;;;;1.70;0.60;;;1.50;99.90;;;;;;5043616;28;20021;-67
2023/02/27 09:30:50;;;;;;;1.85;0.77;;;1.90;99.90;;;;;;5047437;28;20673;-65
2023/02/27 09:33:16;;;;;;;0.47;0.40;;;2.60;99.90;;;;;;5037310;28;20021;-66
2023/02/27 09:35:41;;;;;;;1.65;0.43;;;3.40;99.90;;;;;;5039233;28;20017;-67
2023/02/27 09:38:07;;;;;;;0.85;0.47;;;4.10;99.50;;;;;;5040943;28;20025;-66
2023/02/27 09:40:42;;;;;;;1.85;0.50;;;4.40;98.90;;;;;;5047589;28;20017;-66
2023/02/27 09:43:15;;;;;;;0.40;0.30;;;4.60;97.20;;;;;;5043145;28;20375;-66
2023/02/27 09:45:41;;;;;;;2.53;0.70;;;5.20;97.60;;;;;;5037978;28;20130;-64
2023/02/27 09:48:32;;;;;;;1.00;0.47;;;5.40;95.90;;;;;;5036212;28;20371;-66
2023/02/27 09:50:59;;;;;;;1.73;0.63;;;5.80;94.50;;;;;;5044198;28;20025;-66
2023/02/27 09:53:42;;;;;;;0.90;0.50;;;5.90;94.10;;;;;;5040130;28;20025;-67
2023/02/27 09:56:14;;;;;;;1.10;0.32;;;5.80;93.80;;;;;;5009232;28;20042;-68
2023/02/27 09:58:47;;;;;;;0.88;0.30;;;5.70;94.30;;;;;;5043664;28;20098;-66
2023/02/27 10:01:38;;;;;;;0.55;0.43;;;5.90;92.80;;;;;;5042465;28;20115;-66
2023/02/27 10:04:28;;;;;;;3.20;0.88;;;5.80;93.30;;;;;;5041303;28;20029;-66
2023/02/27 10:07:24;;;;;;;0.95;0.57;;;6.00;92.80;;;;;;5044781;28;20037;-66
2023/02/27 10:10:07;;;;;;;0.63;0.40;;;5.50;92.90;;;;;;5034062;28;20044;-66
2023/02/27 10:12:43;;;;;;;1.17;0.37;;;5.60;92.40;;;;;;5047670;28;20099;-68
2023/02/27 10:15:22;;;;;;;2.03;0.50;;;5.70;92.80;;;;;;5041026;28;20032;-66
2023/02/27 10:17:57;;;;;;;1.17;0.43;;;6.10;92.50;;;;;;5043457;28;20036;-66
2023/02/27 10:20:31;;;;;;;0.55;0.55;;;5.90;92.60;;;;;;5034016;28;20063;-65
2023/02/27 10:23:02;;;;;;;0.73;0.73;;;5.50;93.50;;;;;;5045551;28;20051;-66
2023/02/27 10:25:28;;;;;;;1.58;0.70;;;5.40;93.20;;;;;;5038767;28;20029;-64
2023/02/27 10:27:57;;;;;;;1.25;0.50;;;5.10;93.80;;;;;;5045410;28;20060;-66
2023/02/27 10:30:26;;;;;;;1.40;0.50;;;4.90;93.70;;;;;;5041188;28;20021;-66
2023/02/27 10:33:06;;;;;;;1.13;0.30;;;4.60;93.60;;;;;;5049110;28;20025;-67
2023/02/27 10:35:36;;;;;;;0.85;0.50;;;4.60;93.90;;;;;;5041506;28;20508;-65
2023/02/27 10:38:19;;;;;;;1.02;0.40;;;4.50;94.80;;;;;;5046157;28;20037;-66
2023/02/27 10:40:46;;;;;;;0.85;0.30;;;4.60;94.30;;;;;;5033156;28;20111;-65
2023/02/27 10:43:15;;;;;;;0.30;0.30;;;4.50;94.50;;;;;;5033354;28;20477;-68
2023/02/27 10:45:42;;;;;;;0.63;0.38;;;4.30;94.00;;;;;;5046348;28;20035;-66
2023/02/27 10:48:09;;;;;;;3.80;0.98;;;4.40;94.70;;;;;;5040440;28;20074;-65
2023/02/27 10:50:38;;;;;;;2.67;0.73;;;4.30;93.80;;;;;;5043403;28;20020;-65
2023/02/27 10:53:15;;;;;;;0.65;0.50;;;4.40;94.00;;;;;;5042373;28;20033;-66
2023/02/27 10:55:43;;;;;;;1.85;0.82;;;4.50;93.90;;;;;;5018333;28;20496;-67
2023/02/27 10:58:18;;;;;;;0.73;0.30;;;4.40;93.00;;;;;;5040327;28;20048;-67
2023/02/27 11:00:58;;;;;;;1.85;0.40;;;4.40;93.70;;;;;;5040984;28;20068;-66
2023/02/27 11:03:28;;;;;;;3.05;0.47;;;4.50;94.60;;;;;;5043018;28;20029;-67
2023/02/27 11:06:00;;;;;;;0.40;0.40;;;4.40;93.60;;;;;;5047734;28;20024;-67
2023/02/27 11:08:29;;;;;;;1.85;0.57;;;4.40;93.50;;;;;;5039369;28;20508;-67
2023/02/27 11:10:59;;;;;;;4.40;0.63;;;4.40;93.80;;;;;;5044319;28;20508;-65
2023/02/27 11:13:27;;;;;;;0.30;0.30;;;4.40;94.00;;;;;;5046652;28;20017;-65
2023/02/27 11:16:11;;;;;;;1.92;0.40;;;4.40;93.30;;;;;;5044594;28;20505;-65
2023/02/27 11:18:39;;;;;;;5.43;0.40;;;4.50;93.70;;;;;;5041335;28;20028;-66
2023/02/27 11:21:15;;;;;;;0.40;0.30;;;4.40;93.90;;;;;;5043595;28;20458;-67
2023/02/27 11:24:06;;;;;;;3.95;0.57;;;4.40;93.50;;;;;;5034786;28;20029;-66
2023/02/27 11:26:37;;;;;;;3.45;0.50;;;4.50;93.60;;;;;;5052392;28;20032;-66
2023/02/27 11:29:10;;;;;;;1.08;0.40;;;4.50;94.00;;;;;;5037430;28;20501;-65
2023/02/27 11:31:37;;;;;;;1.03;0.37;;;4.60;93.20;;;;;;5039245;28;20028;-66
2023/02/27 11:34:04;;;;;;;1.52;0.80;;;4.60;93.50;;;;;;5048924;28;20027;-66
2023/02/27 11:36:43;;;;;;;1.90;0.90;;;4.80;93.20;;;;;;5042107;28;20025;-67
2023/02/27 11:39:21;;;;;;;0.52;0.45;;;4.80;93.10;;;;;;5044586;28;20032;-66
2023/02/27 11:41:47;;;;;;;3.30;0.52;;;4.70;93.40;;;;;;5038822;28;20025;-68
2023/02/27 11:44:17;;;;;;;2.67;0.75;;;4.80;94.00;;;;;;5041870;28;20032;-66
2023/02/27 11:46:43;;;;;;;1.40;0.40;;;4.90;93.80;;;;;;5047372;28;20023;-65
2023/02/27 11:49:32;;;;;;;2.92;1.15;;;4.90;93.40;;;;;;5044131;28;20029;-66
2023/02/27 11:52:12;;;;;;;2.47;0.85;;;4.80;92.70;;;;;;5038866;28;20071;-66
2023/02/27 11:54:44;;;;;;;1.42;0.60;;;4.90;92.80;;;;;;5040534;28;20067;-66
2023/02/27 11:57:16;;;;;;;1.60;0.52;;;4.80;93.40;;;;;;5020574;28;20037;-67
2023/02/27 11:59:53;;;;;;;1.50;0.55;;;4.90;93.30;;;;;;5045948;28;20102;-65
2023/02/27 12:02:24;;;;;;;1.27;0.45;;;5.00;92.90;;;;;;5047699;28;20017;-66
2023/02/27 12:05:01;;;;;;;1.48;0.63;;;5.10;92.50;;;;;;5046258;28;20025;-66
2023/02/27 12:07:35;;;;;;;1.88;0.70;;;5.10;93.30;;;;;;5045470;28;20079;-66
2023/02/27 12:10:12;;;;;;;0.70;0.55;;;5.10;92.40;;;;;;5042248;28;20744;-65
2023/02/27 12:13:12;;;;;;;0.60;0.30;;;5.10;92.20;;;;;;5050912;28;20155;-65
2023/02/27 12:15:51;;;;;;;2.45;0.90;;;5.10;91.20;;;;;;5031887;28;20033;-65
2023/02/27 12:18:46;;;;;;;1.58;0.40;;;5.00;92.00;;;;;;5043706;28;20135;-66
2023/02/27 12:21:35;;;;;;;0.40;0.30;;;4.90;91.60;;;;;;5046910;28;20026;-64
2023/02/27 12:24:12;;;;;;;1.13;0.40;;;4.80;91.80;;;;;;5045833;28;20087;-66
2023/02/27 12:26:43;;;;;;;0.90;0.30;;;4.90;92.00;;;;;;5044933;28;20056;-66
2023/02/27 12:29:30;;;;;;;0.30;0.25;;;4.90;92.00;;;;;;5044792;28;20473;-66
2023/02/27 12:32:03;;;;;;;0.68;0.25;;;5.00;91.90;;;;;;5039778;28;20072;-66
2023/02/27 12:34:43;;;;;;;1.65;0.50;;;5.10;91.70;;;;;;5043829;28;20021;-67
2023/02/27 12:37:14;;;;;;;0.65;0.40;;;5.00;91.50;;;;;;5043068;28;20025;-66
2023/02/27 12:39:43;;;;;;;1.10;0.43;;;5.00;92.00;;;;;;5043822;28;20021;-66
2023/02/27 12:42:30;;;;;;;0.65;0.50;;;5.10;93.00;;;;;;5037214;28;20035;-68
2023/02/27 12:45:21;;;;;;;2.00;0.65;;;5.20;91.30;;;;;;5042168;28;20037;-66
2023/02/27 12:48:00;;;;;;;1.63;0.68;;;5.10;90.40;;;;;;5046744;28;20029;-66
2023/02/27 12:50:41;;;;;;;1.30;0.70;;;5.10;90.90;;;;;;5049966;28;20366;-65
2023/02/27 12:53:44;;;;;;;0.45;0.43;;;5.20;91.40;;;;;;5042475;28;20541;-65
2023/02/27 12:56:15;;;;;;;3.13;0.52;;;5.20;90.80;;;;;;5036972;28;20099;-67
2023/02/27 12:58:59;;;;;;;1.52;0.65;;;5.30;89.60;;;;;;5013448;28;20068;-66
2023/02/27 13:02:23;;;;;;;0.43;0.22;;;5.30;89.00;;;;;;5036873;28;20377;-66
2023/02/27 13:05:12;;;;;;;2.78;0.80;;;5.20;90.60;;;;;;4961331;28;20066;-65
2023/02/27 13:08:05;;;;;;;1.80;0.63;;;5.20;90.80;;;;;;4956770;28;20046;-66
2023/02/27 13:10:40;;;;;;;1.15;0.32;;;5.20;90.20;;;;;;5029010;28;20033;-65
2023/02/27 13:13:30;;;;;;;0.82;0.30;;;5.20;89.90;;;;;;5045313;28;20396;-65
2023/02/27 13:16:10;;;;;;;0.90;0.40;;;5.20;89.70;;;;;;5039433;28;20052;-66
2023/02/27 13:19:02;;;;;;;2.33;0.57;;;5.10;89.20;;;;;;5042030;28;20035;-68